Time;durP1;ratioP1;P1;durP2;ratioP2;P2;SDS_P1;SDS_P2;PMS_P1;PMS_P2;Temp;Humidity;BMP_temperature;BMP_pressure;BME280_temperature;BME280_humidity;BME280_pressure;Samples;Min_cycle;Max_cycle;Signal;HPM_P1;HPM_P2
2023/10/12 00:03:26;;;;;;;;;;;;;;;20.03;56.85;99293.66;10325973;28;864;-73
2023/10/12 00:08:31;;;;;;;;;;;;;;;20.02;57.05;99287.53;10325514;28;1910;-74
2023/10/12 00:13:29;;;;;;;;;;;;;;;20.02;56.78;99284.03;10326031;28;873;-74
2023/10/12 00:18:24;;;;;;;;;;;;;;;20.02;57.02;99271.66;10325436;28;862;-74
2023/10/12 00:23:20;;;;;;;;;;;;;;;20.02;57.04;99271.66;10325186;28;884;-74
2023/10/12 00:28:17;;;;;;;;;;;;;;;20.02;56.63;99262.88;10325756;28;1902;-74
2023/10/12 00:33:13;;;;;;;;;;;;;;;20.03;56.69;99272.50;10324998;28;953;-74
2023/10/12 00:38:17;;;;;;;;;;;;;;;20.02;56.91;99282.22;10325862;28;888;-74
2023/10/12 00:43:15;;;;;;;;;;;;;;;20.02;57.00;99276.09;10325141;28;774;-73
2023/10/12 00:48:16;;;;;;;;;;;;;;;20.01;56.94;99263.78;10324922;28;1889;-73
2023/10/12 00:53:15;;;;;;;;;;;;;;;20.01;56.69;99261.16;10324771;28;930;-73
2023/10/12 00:58:14;;;;;;;;;;;;;;;19.99;55.98;99258.59;10333204;28;873;-74
2023/10/12 01:03:27;;;;;;;;;;;;;;;20.00;56.33;99270.03;10332344;28;873;-74
2023/10/12 01:08:23;;;;;;;;;;;;;;;19.99;56.37;99249.78;10332533;28;1914;-73
2023/10/12 01:13:20;;;;;;;;;;;;;;;20.00;56.69;99240.94;10332518;28;846;-73
2023/10/12 01:18:22;;;;;;;;;;;;;;;19.99;56.65;99253.31;10331703;28;885;-74
2023/10/12 01:23:18;;;;;;;;;;;;;;;19.98;56.52;99259.53;10332195;28;819;-74
2023/10/12 01:28:15;;;;;;;;;;;;;;;19.99;56.64;99268.31;10331905;28;1957;-74
2023/10/12 01:33:13;;;;;;;;;;;;;;;19.99;56.84;99279.78;10331834;28;873;-74
2023/10/12 01:38:09;;;;;;;;;;;;;;;19.97;56.73;99294.88;10331508;28;994;-74
2023/10/12 01:43:12;;;;;;;;;;;;;;;19.98;56.87;99298.38;10330855;28;848;-74
2023/10/12 01:48:22;;;;;;;;;;;;;;;19.96;56.65;99310.84;10331181;28;1963;-74
2023/10/12 01:58:20;;;;;;;;;;;;;;;19.96;56.89;99287.88;10329717;28;839;-73
2023/10/12 02:03:17;;;;;;;;;;;;;;;19.95;56.75;99309.97;10330359;28;819;-74
2023/10/12 02:08:16;;;;;;;;;;;;;;;19.95;56.77;99317.91;10330319;28;1909;-73
2023/10/12 02:13:12;;;;;;;;;;;;;;;19.95;56.77;99338.25;10329663;28;989;-73
2023/10/12 02:18:11;;;;;;;;;;;;;;;19.95;57.00;99354.94;10329531;28;920;-74
2023/10/12 02:23:11;;;;;;;;;;;;;;;19.94;56.87;99369.13;10329978;28;846;-73
2023/10/12 02:28:07;;;;;;;;;;;;;;;19.95;57.10;99377.91;10328962;28;1946;-74
2023/10/12 02:33:07;;;;;;;;;;;;;;;19.93;56.92;99384.13;10328981;28;757;-73
2023/10/12 02:38:04;;;;;;;;;;;;;;;19.93;56.98;99392.06;10329450;28;810;-73
2023/10/12 02:43:00;;;;;;;;;;;;;;;19.92;56.95;99400.09;10329110;28;817;-73
2023/10/12 02:47:58;;;;;;;;;;;;;;;19.91;57.12;99415.13;10328511;28;1902;-73
2023/10/12 02:52:54;;;;;;;;;;;;;;;19.91;57.17;99423.06;10328313;28;837;-73
2023/10/12 02:57:59;;;;;;;;;;;;;;;19.90;57.01;99421.34;10328017;28;901;-74
2023/10/12 03:02:58;;;;;;;;;;;;;;;19.90;57.17;99433.72;10328464;28;860;-74
2023/10/12 03:07:56;;;;;;;;;;;;;;;19.89;57.13;99432.03;10328027;28;1906;-74
2023/10/12 03:12:55;;;;;;;;;;;;;;;19.89;57.31;99430.22;10327203;28;964;-73
2023/10/12 03:17:58;;;;;;;;;;;;;;;19.87;57.16;99429.47;10327060;28;845;-74
2023/10/12 03:22:59;;;;;;;;;;;;;;;19.86;57.25;99438.34;10326720;28;1045;-74
2023/10/12 03:27:55;;;;;;;;;;;;;;;19.85;57.22;99412.81;10326543;28;1945;-73
2023/10/12 03:32:52;;;;;;;;;;;;;;;19.84;57.32;99411.13;10327200;28;765;-74
2023/10/12 03:37:52;;;;;;;;;;;;;;;19.84;57.38;99391.75;10326594;28;870;-73
2023/10/12 03:42:52;;;;;;;;;;;;;;;19.84;57.38;99391.75;10326194;28;806;-72
2023/10/12 03:48:21;;;;;;;;;;;;;;;19.83;57.20;99377.69;10325926;28;1957;-73
2023/10/12 03:53:26;;;;;;;;;;;;;;;19.81;57.38;99362.84;10325138;28;2033;-73
2023/10/12 03:58:23;;;;;;;;;;;;;;;19.82;57.38;99351.31;10325777;28;870;-74
2023/10/12 04:03:21;;;;;;;;;;;;;;;19.81;57.52;99362.84;10325670;28;889;-74
2023/10/12 04:08:37;;;;;;;;;;;;;;;19.80;57.39;99363.78;10325445;28;1969;-74
2023/10/12 04:18:29;;;;;;;;;;;;;;;19.79;57.46;99386.72;10325800;28;1032;-74
2023/10/12 04:28:32;;;;;;;;;;;;;;;19.77;57.44;99383.31;10325675;28;1945;-73
2023/10/12 04:33:44;;;;;;;;;;;;;;;19.79;57.48;99373.50;10334162;28;814;-73
2023/10/12 04:43:39;;;;;;;;;;;;;;;19.77;57.41;99387.75;10333160;28;1897;-73
2023/10/12 04:48:41;;;;;;;;;;;;;;;19.75;57.51;99389.63;10333062;28;1319;-73
2023/10/12 04:58:59;;;;;;;;;;;;;;;19.75;57.45;99394.91;10332077;28;628;-74
2023/10/12 05:05:14;;;;;;;;;;;;;;;19.75;57.49;99409.00;10332331;28;1971;-74
2023/10/12 05:09:11;;;;;;;;;;;;;;;19.76;57.50;99413.34;10320780;28;1270;-74
2023/10/12 05:14:14;;;;;;;;;;;;;;;19.74;57.65;99415.22;10332531;28;774;-74
2023/10/12 05:19:10;;;;;;;;;;;;;;;19.73;57.53;99434.69;10332512;28;810;-74
2023/10/12 05:24:08;;;;;;;;;;;;;;;19.72;57.63;99435.59;10331437;28;1902;-74
2023/10/12 05:34:32;;;;;;;;;;;;;;;19.72;57.61;99432.13;10331466;28;699;-79
2023/10/12 05:39:28;;;;;;;;;;;;;;;19.69;57.58;99441.91;10329651;28;1026;-80
2023/10/12 05:44:26;;;;;;;;;;;;;;;19.68;57.84;99453.44;10323101;28;1905;-80
2023/10/12 05:49:23;;;;;;;;;;;;;;;19.69;57.67;99459.59;10330606;28;1227;-80
2023/10/12 05:54:23;;;;;;;;;;;;;;;19.68;57.78;99469.31;10326992;28;1022;-80
2023/10/12 05:59:19;;;;;;;;;;;;;;;19.68;57.80;99471.13;10329722;28;890;-79
2023/10/12 06:04:15;;;;;;;;;;;;;;;19.67;57.77;99459.66;10329237;28;1975;-80
2023/10/12 06:09:20;;;;;;;;;;;;;;;19.68;57.82;99456.09;10329330;28;856;-80
2023/10/12 06:14:20;;;;;;;;;;;;;;;19.68;57.77;99465.81;10330945;28;869;-74
2023/10/12 06:19:23;;;;;;;;;;;;;;;19.72;57.63;99458.56;10330070;28;963;-73
2023/10/12 06:24:33;;;;;;;;;;;;;;;19.71;57.81;99460.38;10329750;28;1902;-75
2023/10/12 06:29:29;;;;;;;;;;;;;;;19.69;58.13;99470.16;10329852;28;861;-74
2023/10/12 06:34:29;;;;;;;;;;;;;;;19.66;58.26;99465.03;10328963;28;853;-69
2023/10/12 06:44:27;;;;;;;;;;;;;;;19.63;58.14;99462.56;10328498;28;1918;-70
2023/10/12 06:49:23;;;;;;;;;;;;;;;19.61;58.16;99467.91;10327891;28;1283;-70
2023/10/12 06:54:19;;;;;;;;;;;;;;;19.62;58.21;99479.34;10327786;28;854;-70
2023/10/12 06:59:22;;;;;;;;;;;;;;;19.61;58.24;99486.41;10328612;28;894;-69
2023/10/12 07:04:20;;;;;;;;;;;;;;;19.60;58.18;99478.59;10328295;28;1961;-72
2023/10/12 07:09:16;;;;;;;;;;;;;;;19.58;58.31;99493.69;10327542;28;896;-72
2023/10/12 07:14:12;;;;;;;;;;;;;;;19.57;58.29;99494.59;10326722;28;893;-72
2023/10/12 07:19:09;;;;;;;;;;;;;;;19.61;58.18;99498.78;10327140;28;920;-72
2023/10/12 07:24:07;;;;;;;;;;;;;;;19.59;58.21;99498.00;10327426;28;1957;-72
2023/10/12 07:29:13;;;;;;;;;;;;;;;19.58;58.38;99494.53;10326689;28;861;-74
2023/10/12 07:34:18;;;;;;;;;;;;;;;19.61;58.18;99501.44;10319532;28;855;-73
2023/10/12 07:39:16;;;;;;;;;;;;;;;19.60;58.07;99507.66;10327107;28;902;-73
2023/10/12 07:44:12;;;;;;;;;;;;;;;19.61;58.12;99514.66;10326113;28;1947;-74
2023/10/12 07:49:57;;;;;;;;;;;;;;;19.59;58.26;99525.31;10326644;28;1260;-73
2023/10/12 07:59:48;;;;;;;;;;;;;;;19.57;58.39;99529.84;10325376;28;659;-73
2023/10/12 08:04:58;;;;;;;;;;;;;;;19.59;58.30;99533.22;10325473;28;1910;-73
2023/10/12 08:10:09;;;;;;;;;;;;;;;19.56;58.21;99538.69;10325519;28;906;-74
2023/10/12 08:15:09;;;;;;;;;;;;;;;19.57;58.21;99537.78;10326107;28;845;-74
2023/10/12 08:25:27;;;;;;;;;;;;;;;19.54;58.48;99537.06;10324906;28;1897;-73
2023/10/12 08:30:23;;;;;;;;;;;;;;;19.44;58.82;99542.84;10325242;28;861;-74
2023/10/12 08:36:10;;;;;;;;;;;;;;;19.57;58.36;99542.19;10325878;28;968;-73
2023/10/12 08:46:10;;;;;;;;;;;;;;;19.66;58.03;99555.78;10287952;28;1953;-73
2023/10/12 08:51:09;;;;;;;;;;;;;;;19.67;57.93;99549.56;10324057;28;979;-73
2023/10/12 08:56:08;;;;;;;;;;;;;;;19.68;58.11;99548.66;10325345;28;869;-74
2023/10/12 09:01:10;;;;;;;;;;;;;;;19.68;57.99;99548.66;10324414;28;920;-73
2023/10/12 09:11:26;;;;;;;;;;;;;;;19.72;58.00;99565.19;10324537;28;679;-74
2023/10/12 09:16:21;;;;;;;;;;;;;;;19.72;58.00;99565.19;10327792;28;937;-73
2023/10/12 09:26:32;;;;;;;;;;;;;;;19.73;58.00;99571.31;10332126;28;1948;-74
2023/10/12 09:36:26;;;;;;;;;;;;;;;19.73;57.96;99571.31;10331806;28;890;-73
2023/10/12 09:41:25;;;;;;;;;;;;;;;19.72;57.97;99566.97;10330451;28;925;-71
2023/10/12 09:46:27;;;;;;;;;;;;;;;19.70;58.22;99577.63;10331038;28;1981;-70
2023/10/12 09:51:25;;;;;;;;;;;;;;;19.67;58.28;99577.81;10330784;28;731;-71
2023/10/12 09:56:24;;;;;;;;;;;;;;;19.65;58.29;99583.16;10330285;28;965;-71
2023/10/12 10:06:38;;;;;;;;;;;;;;;19.63;58.48;99585.03;10329866;28;1914;-78
2023/10/12 10:11:34;;;;;;;;;;;;;;;19.65;58.26;99577.88;10330212;28;889;-75
2023/10/12 10:16:45;;;;;;;;;;;;;;;19.66;58.20;99581.38;10329526;28;879;-75
2023/10/12 10:21:49;;;;;;;;;;;;;;;19.59;58.45;99585.25;10329959;28;856;-75
2023/10/12 10:26:47;;;;;;;;;;;;;;;19.61;58.44;99584.25;10329076;28;1894;-74
2023/10/12 10:31:45;;;;;;;;;;;;;;;19.59;58.47;99577.34;10328742;28;878;-74
2023/10/12 10:36:44;;;;;;;;;;;;;;;19.54;58.85;99582.00;10328652;28;866;-74
2023/10/12 10:41:46;;;;;;;;;;;;;;;19.54;58.88;99587.28;10328501;28;797;-74
2023/10/12 10:46:44;;;;;;;;;;;;;;;19.52;58.87;99578.59;10328139;28;1897;-74
2023/10/12 10:51:42;;;;;;;;;;;;;;;19.49;59.00;99567.25;10328057;28;849;-74
2023/10/12 10:56:38;;;;;;;;;;;;;;;19.47;59.07;99571.78;10327721;28;886;-75
2023/10/12 11:01:34;;;;;;;;;;;;;;;19.47;59.17;99568.28;10328404;28;936;-74
2023/10/12 11:06:31;;;;;;;;;;;;;;;19.45;59.18;99557.78;10327962;28;1922;-74
2023/10/12 11:11:27;;;;;;;;;;;;;;;19.48;59.09;99536.44;10327180;28;859;-74
2023/10/12 11:21:22;;;;;;;;;;;;;;;19.51;59.06;99510.78;10326909;28;854;-74
2023/10/12 11:26:17;;;;;;;;;;;;;;;19.53;58.90;99509.78;10326935;28;1898;-74
2023/10/12 11:31:30;;;;;;;;;;;;;;;19.52;59.06;99525.72;10326535;28;825;-74
2023/10/12 11:36:26;;;;;;;;;;;;;;;19.51;59.08;99516.09;10326867;28;872;-75
2023/10/12 11:41:22;;;;;;;;;;;;;;;19.49;59.15;99517.03;10325388;28;978;-76
2023/10/12 11:46:18;;;;;;;;;;;;;;;19.47;59.25;99526.84;10326230;28;1897;-74
2023/10/12 11:51:14;;;;;;;;;;;;;;;19.47;59.09;99521.53;10326526;28;826;-70
2023/10/12 11:56:14;;;;;;;;;;;;;;;19.44;59.24;99505.84;10325748;28;919;-70
2023/10/12 12:01:10;;;;;;;;;;;;;;;19.45;59.34;99509.34;10325570;28;870;-74
2023/10/12 12:06:18;;;;;;;;;;;;;;;19.45;59.41;99504.06;10324844;28;1971;-74
2023/10/12 12:11:19;;;;;;;;;;;;;;;19.45;59.38;99504.91;10324890;28;1115;-75
2023/10/12 12:16:21;;;;;;;;;;;;;;;19.46;59.39;99498.66;10325098;28;829;-75
2023/10/12 12:21:17;;;;;;;;;;;;;;;19.45;59.45;99494.34;10325864;28;771;-74
2023/10/12 12:26:14;;;;;;;;;;;;;;;19.46;59.38;99489.91;10324303;28;2027;-75
2023/10/12 12:31:15;;;;;;;;;;;;;;;19.44;59.37;99495.28;10322457;28;1179;-75
2023/10/12 12:36:12;;;;;;;;;;;;;;;19.44;59.52;99481.19;10324302;28;897;-76
2023/10/12 12:41:18;;;;;;;;;;;;;;;19.43;59.53;99475.06;10325236;28;802;-78
2023/10/12 12:46:14;;;;;;;;;;;;;;;19.43;59.55;99459.19;10325386;28;1953;-75
2023/10/12 12:51:11;;;;;;;;;;;;;;;19.42;59.64;99469.88;10328331;28;869;-75
2023/10/12 12:56:10;;;;;;;;;;;;;;;19.43;59.70;99477.69;10333138;28;851;-75
2023/10/12 13:01:07;;;;;;;;;;;;;;;19.49;59.51;99472.09;10332289;28;829;-75
2023/10/12 13:06:07;;;;;;;;;;;;;;;19.54;59.34;99473.63;10332111;28;1914;-77
2023/10/12 13:11:04;;;;;;;;;;;;;;;19.56;59.13;99479.69;10332435;28;926;-78
2023/10/12 13:16:00;;;;;;;;;;;;;;;19.58;59.28;99491.88;10332531;28;804;-78
2023/10/12 13:20:57;;;;;;;;;;;;;;;19.59;59.27;99485.63;10332028;28;834;-78
2023/10/12 13:25:53;;;;;;;;;;;;;;;19.59;59.00;99483.00;10331282;28;1902;-78
2023/10/12 13:30:49;;;;;;;;;;;;;;;19.61;59.01;99491.69;10331231;28;856;-78
2023/10/12 13:35:46;;;;;;;;;;;;;;;19.62;59.21;99489.91;10331128;28;838;-74
2023/10/12 13:40:43;;;;;;;;;;;;;;;19.64;59.05;99478.31;10331598;28;814;-78
2023/10/12 13:45:39;;;;;;;;;;;;;;;19.63;59.10;99473.97;10330410;28;1977;-78
2023/10/12 13:50:36;;;;;;;;;;;;;;;19.62;59.26;99480.22;10330934;28;1709;-78
2023/10/12 13:55:32;;;;;;;;;;;;;;;19.62;59.18;99476.69;10330276;28;916;-78
2023/10/12 14:00:33;;;;;;;;;;;;;;;19.62;59.25;99485.50;10329682;28;946;-77
2023/10/12 14:05:29;;;;;;;;;;;;;;;19.62;59.22;99466.13;10330533;28;1922;-75
2023/10/12 14:10:29;;;;;;;;;;;;;;;19.63;59.20;99467.84;10329719;28;990;-74
2023/10/12 14:15:27;;;;;;;;;;;;;;;19.66;59.16;99465.91;10330177;28;861;-72
2023/10/12 14:20:32;;;;;;;;;;;;;;;19.69;58.92;99475.44;10329983;28;782;-72
2023/10/12 14:25:29;;;;;;;;;;;;;;;19.73;59.32;99473.47;10329195;28;1906;-72
2023/10/12 14:30:28;;;;;;;;;;;;;;;19.76;59.77;99476.81;10329069;28;782;-72
2023/10/12 14:35:28;;;;;;;;;;;;;;;19.77;60.44;99462.66;10328692;28;969;-72
2023/10/12 14:40:31;;;;;;;;;;;;;;;19.79;60.90;99449.34;10328482;28;865;-73
2023/10/12 14:45:27;;;;;;;;;;;;;;;19.78;61.12;99452.91;10328845;28;1957;-72
2023/10/12 14:50:24;;;;;;;;;;;;;;;19.76;61.36;99442.44;10328557;28;1149;-73
2023/10/12 14:55:20;;;;;;;;;;;;;;;19.73;61.94;99437.34;10327883;28;958;-72
2023/10/12 15:00:22;;;;;;;;;;;;;;;19.72;61.78;99454.13;10327865;28;776;-73
2023/10/12 15:05:18;;;;;;;;;;;;;;;19.69;61.56;99438.44;10327566;28;1977;-72
2023/10/12 15:10:17;;;;;;;;;;;;;;;19.66;61.29;99442.09;10327238;28;948;-72
2023/10/12 15:15:16;;;;;;;;;;;;;;;19.65;61.37;99439.53;10326899;28;795;-72
2023/10/12 15:20:15;;;;;;;;;;;;;;;19.64;61.32;99435.16;10326875;28;873;-73
2023/10/12 15:25:12;;;;;;;;;;;;;;;19.66;61.15;99444.75;10323222;28;1901;-72
2023/10/12 15:30:10;;;;;;;;;;;;;;;19.68;61.06;99442.03;10326073;28;870;-72
2023/10/12 15:35:10;;;;;;;;;;;;;;;19.71;60.80;99436.56;10325721;28;952;-73
2023/10/12 15:40:08;;;;;;;;;;;;;;;19.72;60.58;99438.25;10325961;28;836;-73
2023/10/12 15:45:07;;;;;;;;;;;;;;;19.75;60.53;99438.06;10326003;28;1898;-73
2023/10/12 15:50:04;;;;;;;;;;;;;;;19.76;60.54;99431.03;10326901;28;1303;-72
2023/10/12 15:55:00;;;;;;;;;;;;;;;19.75;60.62;99440.72;10325984;28;788;-74
2023/10/12 15:59:56;;;;;;;;;;;;;;;19.76;60.37;99444.25;10325946;28;1095;-73
2023/10/12 16:04:53;;;;;;;;;;;;;;;19.74;60.53;99446.97;10326332;28;1981;-68
2023/10/12 16:09:50;;;;;;;;;;;;;;;19.73;60.50;99457.63;10326242;28;966;-73
2023/10/12 16:14:49;;;;;;;;;;;;;;;19.73;60.47;99462.91;10326113;28;899;-74
2023/10/12 16:19:46;;;;;;;;;;;;;;;19.75;60.33;99458.38;10325430;28;853;-73
2023/10/12 16:24:42;;;;;;;;;;;;;;;19.76;60.45;99455.66;10325213;28;1902;-73
2023/10/12 16:29:39;;;;;;;;;;;;;;;19.78;60.39;99466.16;10325883;28;939;-73
2023/10/12 16:34:35;;;;;;;;;;;;;;;19.78;60.18;99469.66;10324986;28;890;-74
2023/10/12 16:39:34;;;;;;;;;;;;;;;19.78;60.37;99472.31;10325358;28;985;-73
2023/10/12 16:44:29;;;;;;;;;;;;;;;19.77;60.33;99475.88;10324912;28;1965;-73
2023/10/12 16:49:27;;;;;;;;;;;;;;;19.78;60.28;99488.19;10325047;28;1281;-73
2023/10/12 16:54:23;;;;;;;;;;;;;;;19.80;60.49;99502.16;10324783;28;761;-73
2023/10/12 16:59:19;;;;;;;;;;;;;;;19.81;60.29;99497.72;10325906;28;878;-74
2023/10/12 17:04:15;;;;;;;;;;;;;;;19.80;60.27;99496.84;10325011;28;1981;-73
2023/10/12 17:09:12;;;;;;;;;;;;;;;19.79;60.38;99495.16;10325114;28;927;-73
2023/10/12 17:14:08;;;;;;;;;;;;;;;19.79;60.31;99492.53;10324327;28;974;-73
2023/10/12 17:19:03;;;;;;;;;;;;;;;19.78;60.40;99489.94;10324313;28;984;-73
2023/10/12 17:23:59;;;;;;;;;;;;;;;19.79;60.29;99492.53;10325051;28;919;-74
2023/10/12 17:28:56;;;;;;;;;;;;;;;19.79;60.37;99495.16;10324200;28;1959;-74
2023/10/12 17:33:52;;;;;;;;;;;;;;;19.80;60.23;99491.56;10324506;28;889;-74
2023/10/12 17:38:48;;;;;;;;;;;;;;;19.81;60.29;99479.22;10329381;28;1145;-73
2023/10/12 17:43:45;;;;;;;;;;;;;;;19.81;60.29;99489.81;10331913;28;794;-72
2023/10/12 17:48:41;;;;;;;;;;;;;;;19.81;60.17;99484.50;10330575;28;1948;-73
2023/10/12 17:53:37;;;;;;;;;;;;;;;19.80;60.33;99491.56;10330720;28;959;-73
2023/10/12 17:58:33;;;;;;;;;;;;;;;19.81;60.26;99492.44;10331253;28;869;-74
2023/10/12 18:03:29;;;;;;;;;;;;;;;19.81;59.96;99484.50;10331531;28;841;-73
2023/10/12 18:08:25;;;;;;;;;;;;;;;19.82;60.07;99496.78;10330136;28;1971;-73
2023/10/12 18:13:22;;;;;;;;;;;;;;;19.82;60.27;99487.06;10330763;28;977;-73
2023/10/12 18:18:18;;;;;;;;;;;;;;;19.82;60.12;99487.06;10329754;28;890;-74
2023/10/12 18:23:16;;;;;;;;;;;;;;;19.81;60.21;99489.81;10330252;28;829;-74
2023/10/12 18:28:16;;;;;;;;;;;;;;;19.81;60.23;99490.66;10329703;28;1889;-74
2023/10/12 18:33:12;;;;;;;;;;;;;;;19.83;60.18;99490.53;10328976;28;943;-74
2023/10/12 18:38:08;;;;;;;;;;;;;;;19.83;60.07;99486.13;10329556;28;941;-74
2023/10/12 18:43:06;;;;;;;;;;;;;;;19.85;60.00;99491.31;10328815;28;798;-72
2023/10/12 18:48:02;;;;;;;;;;;;;;;19.84;60.11;99489.63;10327793;28;1947;-75
2023/10/12 18:52:58;;;;;;;;;;;;;;;19.82;60.07;99484.41;10328904;28;941;-74
2023/10/12 18:57:54;;;;;;;;;;;;;;;19.83;60.01;99491.41;10328619;28;966;-74
2023/10/12 19:02:54;;;;;;;;;;;;;;;19.84;60.14;99490.47;10327906;28;862;-74
2023/10/12 19:07:50;;;;;;;;;;;;;;;19.84;59.97;99481.69;10328077;28;1902;-74
2023/10/12 19:12:45;;;;;;;;;;;;;;;19.84;60.03;99489.63;10328094;28;877;-74
2023/10/12 19:17:42;;;;;;;;;;;;;;;19.86;60.31;99474.53;10327393;28;917;-74
2023/10/12 19:22:43;;;;;;;;;;;;;;;19.86;60.17;99483.31;10327776;28;828;-74
2023/10/12 19:27:39;;;;;;;;;;;;;;;19.85;60.06;99481.59;10326703;28;1902;-73
2023/10/12 19:32:35;;;;;;;;;;;;;;;19.85;60.12;99484.22;10327849;28;857;-73
2023/10/12 19:37:30;;;;;;;;;;;;;;;19.84;60.16;99476.41;10326093;28;833;-73
2023/10/12 19:42:26;;;;;;;;;;;;;;;19.84;60.17;99479.03;10327440;28;885;-74
2023/10/12 19:47:22;;;;;;;;;;;;;;;19.82;60.23;99467.69;10327178;28;1893;-73
2023/10/12 19:52:20;;;;;;;;;;;;;;;19.80;60.17;99475.69;10327144;28;786;-74
2023/10/12 19:57:16;;;;;;;;;;;;;;;19.79;60.18;99475.81;10325961;28;986;-74
2023/10/12 20:02:21;;;;;;;;;;;;;;;19.77;60.20;99477.66;10325470;28;1049;-73
2023/10/12 20:07:17;;;;;;;;;;;;;;;19.76;60.14;99478.63;10326187;28;1910;-74
2023/10/12 20:12:13;;;;;;;;;;;;;;;19.75;60.32;99485.69;10325470;28;913;-74
2023/10/12 20:17:10;;;;;;;;;;;;;;;19.74;60.32;99488.44;10326645;28;826;-74
2023/10/12 20:22:07;;;;;;;;;;;;;;;19.72;60.38;99495.59;10325959;28;870;-73
2023/10/12 20:27:05;;;;;;;;;;;;;;;19.71;60.49;99494.75;10325142;28;1902;-73
2023/10/12 20:32:01;;;;;;;;;;;;;;;19.69;60.53;99502.75;10325137;28;974;-74
2023/10/12 20:36:57;;;;;;;;;;;;;;;19.68;60.45;99505.50;10325132;28;874;-73
2023/10/12 20:41:52;;;;;;;;;;;;;;;19.66;60.56;99505.56;10325042;28;888;-73
2023/10/12 20:46:49;;;;;;;;;;;;;;;19.65;60.36;99495.06;10324001;28;1898;-73
2023/10/12 20:51:45;;;;;;;;;;;;;;;19.64;60.38;99490.69;10324119;28;859;-73
2023/10/12 20:56:41;;;;;;;;;;;;;;;19.62;60.39;99493.44;10324666;28;890;-73
2023/10/12 21:01:45;;;;;;;;;;;;;;;19.62;60.54;99484.63;10325196;28;866;-73
2023/10/12 21:06:42;;;;;;;;;;;;;;;19.61;60.35;99488.22;10324518;28;1969;-73
2023/10/12 21:11:45;;;;;;;;;;;;;;;19.58;60.45;99478.66;10326838;28;887;-74
2023/10/12 21:16:41;;;;;;;;;;;;;;;19.57;60.52;99466.38;10332157;28;822;-73
2023/10/12 21:21:37;;;;;;;;;;;;;;;19.56;60.35;99459.38;10332570;28;933;-74
2023/10/12 21:26:32;;;;;;;;;;;;;;;19.55;60.51;99457.69;10332342;28;1902;-74
2023/10/12 21:31:30;;;;;;;;;;;;;;;19.56;60.54;99459.38;10331632;28;821;-73
2023/10/12 21:36:26;;;;;;;;;;;;;;;19.55;60.50;99464.78;10331289;28;920;-73
2023/10/12 21:41:31;;;;;;;;;;;;;;;19.54;60.59;99460.41;10331030;28;981;-73
2023/10/12 21:46:29;;;;;;;;;;;;;;;19.51;60.52;99458.78;10330957;28;1898;-74
2023/10/12 21:51:27;;;;;;;;;;;;;;;19.49;60.58;99469.44;10330970;28;802;-73
2023/10/12 21:56:23;;;;;;;;;;;;;;;19.49;60.66;99465.94;10331447;28;866;-73
2023/10/12 22:06:44;;;;;;;;;;;;;;;19.47;60.59;99444.88;10316220;28;1917;-73
2023/10/12 22:11:44;;;;;;;;;;;;;;;19.45;60.75;99436.19;10330687;28;869;-73
2023/10/12 22:16:49;;;;;;;;;;;;;;;19.45;60.84;99438.81;10329874;28;830;-73
2023/10/12 22:21:45;;;;;;;;;;;;;;;19.41;60.83;99424.09;10330772;28;806;-72
2023/10/12 22:26:41;;;;;;;;;;;;;;;19.42;60.87;99431.06;10329308;28;1926;-73
2023/10/12 22:31:37;;;;;;;;;;;;;;;19.40;61.13;99435.59;10329300;28;875;-73
2023/10/12 22:36:33;;;;;;;;;;;;;;;19.39;60.97;99436.53;10329167;28;863;-73
2023/10/12 22:41:30;;;;;;;;;;;;;;;19.38;61.11;99434.81;10329424;28;896;-73
2023/10/12 22:46:28;;;;;;;;;;;;;;;19.37;60.97;99419.06;10328874;28;1945;-73
2023/10/12 22:51:25;;;;;;;;;;;;;;;19.35;61.08;99418.28;10328667;28;798;-73
2023/10/12 22:56:20;;;;;;;;;;;;;;;19.33;61.29;99423.63;10328192;28;926;-73
2023/10/12 23:01:16;;;;;;;;;;;;;;;19.33;61.25;99436.84;10328149;28;856;-73
2023/10/12 23:06:12;;;;;;;;;;;;;;;19.33;61.16;99441.28;10327885;28;1922;-73
2023/10/12 23:11:21;;;;;;;;;;;;;;;19.33;61.30;99442.13;10327860;28;941;-73
2023/10/12 23:16:25;;;;;;;;;;;;;;;19.32;61.18;99447.53;10328290;28;842;-73
2023/10/12 23:21:29;;;;;;;;;;;;;;;19.30;61.30;99434.38;10327299;28;989;-73
2023/10/12 23:26:30;;;;;;;;;;;;;;;19.30;61.45;99434.38;10327821;28;1902;-73
2023/10/12 23:31:30;;;;;;;;;;;;;;;19.30;61.44;99437.00;10326854;28;985;-73
2023/10/12 23:36:28;;;;;;;;;;;;;;;19.29;61.41;99442.41;10326443;28;866;-73
2023/10/12 23:41:23;;;;;;;;;;;;;;;19.28;61.47;99436.25;10326979;28;882;-73
2023/10/12 23:46:23;;;;;;;;;;;;;;;19.27;61.55;99442.47;10326157;28;1897;-72
2023/10/12 23:51:19;;;;;;;;;;;;;;;19.27;61.54;99437.19;10327024;28;815;-73
2023/10/12 23:56:16;;;;;;;;;;;;;;;19.26;61.42;99430.22;10326337;28;855;-73
